createdAt,value
2023-10-10T02:47:32.296Z,6.05
2023-10-10T02:50:13.125Z,6.03
2023-10-10T02:55:52.924Z,6.75
2023-10-10T02:58:27.780Z,7.10
2023-10-10T03:00:58.950Z,6.93
2023-10-10T03:03:27.730Z,6.75
2023-10-10T03:06:02.098Z,5.85
2023-10-10T03:08:34.591Z,5.68
2023-10-10T03:11:02.861Z,7.25
2023-10-10T03:13:52.857Z,6.47
2023-10-10T03:16:22.440Z,6.40
2023-10-10T03:19:03.300Z,6.90
2023-10-10T03:21:47.326Z,7.80
2023-10-10T03:24:29.415Z,6.97
2023-10-10T03:27:13.966Z,6.28
2023-10-10T03:29:53.519Z,6.70
2023-10-10T03:32:26.362Z,6.57
2023-10-10T03:35:05.767Z,6.97
2023-10-10T03:37:42.740Z,6.65
2023-10-10T03:40:48.345Z,6.97
2023-10-10T03:43:37.400Z,6.82
2023-10-10T03:46:25.525Z,6.03
2023-10-10T03:49:10.690Z,6.53
2023-10-10T03:51:56.330Z,6.97
2023-10-10T03:54:41.542Z,6.68
2023-10-10T03:57:27.187Z,7.28
2023-10-10T04:00:12.596Z,7.00
2023-10-10T04:02:59.516Z,6.70
2023-10-10T04:05:44.947Z,6.32
2023-10-10T04:08:47.036Z,6.07
2023-10-10T04:11:33.275Z,6.65
2023-10-10T04:14:19.057Z,6.15
2023-10-10T04:17:06.064Z,7.18
2023-10-10T04:19:51.777Z,6.68
2023-10-10T04:22:37.380Z,6.47
2023-10-10T04:25:23.150Z,7.32
2023-10-10T04:28:08.253Z,7.43
2023-10-10T04:30:53.986Z,6.75
2023-10-10T04:33:39.311Z,6.40
2023-10-10T04:36:27.760Z,7.15
2023-10-10T04:39:16.141Z,6.75
2023-10-10T04:42:01.430Z,6.65
2023-10-10T04:44:50.492Z,6.97
2023-10-10T04:47:36.136Z,7.10
2023-10-10T04:50:21.707Z,6.93
2023-10-10T04:53:06.970Z,6.80
2023-10-10T04:55:54.155Z,6.97
2023-10-10T04:58:40.585Z,7.95
2023-10-10T05:01:29.554Z,8.40
2023-10-10T05:04:15.440Z,6.55
2023-10-10T05:07:03.850Z,6.93
2023-10-10T05:09:49.257Z,7.47
2023-10-10T05:12:45.386Z,7.18
2023-10-10T05:15:39.706Z,6.35
2023-10-10T05:18:28.756Z,7.18
2023-10-10T05:21:14.999Z,8.00
2023-10-10T05:23:50.758Z,8.10
2023-10-10T05:26:21.019Z,7.38
2023-10-10T05:28:50.610Z,8.18
2023-10-10T05:31:23.044Z,6.80
2023-10-10T05:33:56.363Z,7.15
2023-10-10T05:36:29.047Z,6.60
2023-10-10T05:38:57.331Z,5.40
2023-10-10T05:41:24.402Z,7.32
2023-10-10T05:44:02.522Z,6.53
2023-10-10T05:46:29.483Z,7.85
2023-10-10T05:48:57.762Z,6.53
2023-10-10T05:51:36.505Z,7.38
2023-10-10T05:57:49.934Z,6.45
2023-10-10T06:02:50.338Z,6.55
2023-10-10T06:12:20.487Z,7.03
2023-10-10T06:14:49.921Z,6.57
2023-10-10T06:17:17.696Z,7.00
2023-10-10T06:19:46.973Z,6.15
2023-10-10T06:22:16.497Z,6.93
2023-10-10T06:24:43.710Z,6.78
2023-10-10T06:27:16.306Z,5.95
2023-10-10T06:33:48.099Z,6.38
2023-10-10T06:36:24.299Z,6.28
2023-10-10T06:39:44.481Z,5.93
2023-10-10T06:42:13.619Z,6.97
2023-10-10T06:44:42.617Z,6.65
2023-10-10T06:47:13.447Z,6.95
2023-10-10T06:50:05.106Z,5.95
2023-10-10T07:03:56.056Z,6.15
2023-10-10T07:06:23.218Z,6.25
2023-10-10T12:04:52.154Z,3.28
2023-10-10T12:07:33.481Z,2.72
2023-10-10T12:10:10.730Z,2.72
2023-10-10T12:12:53.030Z,2.50
2023-10-10T12:15:43.106Z,2.60
2023-10-10T12:18:21.950Z,2.55
2023-10-10T12:21:24.239Z,2.63
2023-10-10T12:28:57.854Z,2.85
2023-10-10T12:31:30.696Z,3.60
2023-10-10T12:34:27.335Z,3.42
2023-10-10T12:37:06.959Z,3.05
2023-10-10T12:37:12.423Z,2.30
2023-10-10T12:51:07.129Z,2.97
2023-10-10T12:59:32.241Z,2.90
2023-10-10T14:53:46.955Z,2.75
2023-10-10T15:01:54.100Z,2.70
2023-10-10T15:04:24.151Z,2.78
2023-10-10T15:07:43.072Z,2.15
2023-10-10T15:29:59.358Z,2.15
2023-10-10T21:27:03.500Z,13.73
2023-10-10T21:29:31.011Z,14.60
2023-10-10T21:32:00.272Z,15.57
2023-10-10T21:34:32.398Z,15.15
2023-10-10T21:37:02.198Z,16.15
2023-10-10T21:39:29.979Z,14.45
2023-10-10T21:42:00.399Z,14.40
2023-10-10T21:44:28.746Z,15.45
2023-10-10T21:46:58.834Z,14.75
2023-10-10T21:49:37.285Z,14.20
2023-10-10T21:52:08.970Z,15.80
2023-10-10T21:54:57.412Z,15.25
2023-10-10T21:57:34.696Z,13.73
2023-10-10T22:02:46.101Z,13.10
2023-10-10T22:05:20.456Z,13.82
2023-10-10T22:07:55.135Z,14.27
2023-10-10T22:10:30.540Z,13.25
2023-10-10T22:12:59.358Z,13.93
2023-10-10T22:15:26.916Z,13.20
2023-10-10T22:17:59.568Z,14.23
2023-10-10T22:20:35.380Z,13.95
2023-10-10T22:23:08.294Z,14.48
2023-10-10T22:25:51.934Z,13.38
2023-10-10T22:28:27.618Z,13.88
2023-10-10T22:30:58.642Z,12.15
2023-10-10T22:33:28.382Z,13.73
2023-10-10T22:35:58.171Z,13.73
2023-10-10T22:38:31.339Z,15.38
2023-10-10T22:41:07.982Z,14.80
2023-10-10T22:44:02.394Z,16.42
2023-10-10T22:46:38.652Z,15.10
2023-10-10T22:49:13.398Z,15.07
2023-10-10T22:51:44.701Z,15.98
2023-10-10T22:54:45.149Z,15.55
2023-10-10T22:57:21.744Z,17.10
2023-10-10T22:59:53.338Z,16.40
2023-10-10T23:02:25.949Z,17.85
2023-10-10T23:05:00.767Z,17.75
2023-10-10T23:07:37.638Z,17.95
2023-10-10T23:10:24.581Z,17.63
2023-10-10T23:13:10.724Z,16.47
2023-10-10T23:15:40.430Z,14.23
2023-10-10T23:18:12.723Z,14.63
2023-10-10T23:20:42.859Z,15.85
2023-10-10T23:23:19.287Z,14.60
2023-10-10T23:25:55.503Z,13.18
2023-10-10T23:28:25.885Z,12.30
2023-10-10T23:30:55.437Z,15.65
2023-10-10T23:33:30.499Z,15.05
2023-10-10T23:36:16.750Z,14.77
2023-10-10T23:38:49.585Z,14.23
2023-10-10T23:41:21.630Z,11.90
2023-10-10T23:43:53.329Z,13.77
2023-10-10T23:53:30.203Z,11.23
2023-10-10T23:58:51.651Z,11.30
